sensor_id;sensor_type;location;lat;lon;timestamp;pressure;altitude;pressure_sealevel;temperature;humidity
29417;BME280;28421;51.030;4.006;2023-05-11T03:20:30;101480.84;;;11.21;94.57
29417;BME280;28421;51.030;4.006;2023-05-11T03:22:59;101462.75;;;11.05;94.53
29417;BME280;28421;51.030;4.006;2023-05-11T03:25:27;101463.91;;;11.03;94.61
29417;BME280;28421;51.030;4.006;2023-05-11T03:27:54;101476.91;;;11.15;95.09
29417;BME280;28421;51.030;4.006;2023-05-11T03:30:21;101482.34;;;11.24;95.22
29417;BME280;28421;51.030;4.006;2023-05-11T03:32:49;101471.75;;;11.22;95.44
29417;BME280;28421;51.030;4.006;2023-05-11T03:35:15;101495.66;;;11.25;95.56
29417;BME280;28421;51.030;4.006;2023-05-11T03:37:41;101497.59;;;11.41;95.55
29417;BME280;28421;51.030;4.006;2023-05-11T03:40:09;101485.41;;;11.29;95.44
29417;BME280;28421;51.030;4.006;2023-05-11T03:42:45;101473.63;;;11.30;95.62
29417;BME280;28421;51.030;4.006;2023-05-11T03:45:13;101477.91;;;11.40;95.69
29417;BME280;28421;51.030;4.006;2023-05-11T03:47:42;101465.75;;;11.36;95.27
29417;BME280;28421;51.030;4.006;2023-05-11T03:50:10;101487.56;;;11.59;95.12
29417;BME280;28421;51.030;4.006;2023-05-11T03:52:35;101492.94;;;11.59;94.91
29417;BME280;28421;51.030;4.006;2023-05-11T03:55:02;101476.44;;;11.54;94.44
29417;BME280;28421;51.030;4.006;2023-05-11T03:57:29;101478.44;;;11.60;94.29
29417;BME280;28421;51.030;4.006;2023-05-11T03:59:54;101488.09;;;11.71;94.38
29417;BME280;28421;51.030;4.006;2023-05-11T04:02:20;101490.44;;;11.66;94.25
29417;BME280;28421;51.030;4.006;2023-05-11T04:04:49;101488.75;;;11.73;94.34
29417;BME280;28421;51.030;4.006;2023-05-11T04:07:14;101476.97;;;11.66;94.22
29417;BME280;28421;51.030;4.006;2023-05-11T04:09:40;101496.84;;;11.73;94.38
29417;BME280;28421;51.030;4.006;2023-05-11T04:12:05;101493.50;;;11.79;93.86
29417;BME280;28421;51.030;4.006;2023-05-11T04:14:31;101488.63;;;11.75;94.42
29417;BME280;28421;51.030;4.006;2023-05-11T04:16:58;101490.28;;;11.76;94.15
29417;BME280;28421;51.030;4.006;2023-05-11T04:19:26;101454.56;;;11.57;94.29
29417;BME280;28421;51.030;4.006;2023-05-11T04:21:51;101487.34;;;11.87;93.96
29417;BME280;28421;51.030;4.006;2023-05-11T04:24:17;101491.22;;;11.92;93.75
29417;BME280;28421;51.030;4.006;2023-05-11T04:26:44;101483.72;;;11.70;94.24
29417;BME280;28421;51.030;4.006;2023-05-11T04:29:09;101493.06;;;11.92;94.30
29417;BME280;28421;51.030;4.006;2023-05-11T04:31:35;101491.53;;;11.89;94.13
29417;BME280;28421;51.030;4.006;2023-05-11T04:34:05;101498.44;;;11.92;93.51
29417;BME280;28421;51.030;4.006;2023-05-11T04:36:31;101484.97;;;11.92;93.88
29417;BME280;28421;51.030;4.006;2023-05-11T04:38:57;101494.94;;;12.00;93.99
29417;BME280;28421;51.030;4.006;2023-05-11T04:41:23;101502.34;;;12.06;93.95
29417;BME280;28421;51.030;4.006;2023-05-11T04:43:49;101492.41;;;12.14;93.51
29417;BME280;28421;51.030;4.006;2023-05-11T04:46:15;101501.84;;;12.18;93.21
29417;BME280;28421;51.030;4.006;2023-05-11T04:48:41;101478.75;;;11.91;93.47
29417;BME280;28421;51.030;4.006;2023-05-11T04:51:06;101475.22;;;11.91;93.54
29417;BME280;28421;51.030;4.006;2023-05-11T04:53:36;101456.34;;;11.91;93.19
29417;BME280;28421;51.030;4.006;2023-05-11T04:56:02;101474.88;;;12.02;92.75
29417;BME280;28421;51.030;4.006;2023-05-11T04:58:28;101493.44;;;12.22;92.25
29417;BME280;28421;51.030;4.006;2023-05-11T05:00:53;101516.03;;;12.29;91.88
29417;BME280;28421;51.030;4.006;2023-05-11T05:03:19;101500.88;;;12.28;91.77
29417;BME280;28421;51.030;4.006;2023-05-11T05:05:44;101500.19;;;12.26;91.68
29417;BME280;28421;51.030;4.006;2023-05-11T05:08:10;101498.63;;;11.90;92.09
29417;BME280;28421;51.030;4.006;2023-05-11T05:10:36;101489.22;;;12.11;92.49
29417;BME280;28421;51.030;4.006;2023-05-11T05:13:02;101517.72;;;12.38;92.23
29417;BME280;28421;51.030;4.006;2023-05-11T05:15:29;101519.91;;;12.26;92.22
29417;BME280;28421;51.030;4.006;2023-05-11T05:17:55;101523.13;;;12.30;92.27
29417;BME280;28421;51.030;4.006;2023-05-11T05:20:20;101500.53;;;12.31;91.98
29417;BME280;28421;51.030;4.006;2023-05-11T05:22:46;101473.91;;;12.11;91.88
29417;BME280;28421;51.030;4.006;2023-05-11T05:25:11;101505.06;;;12.30;91.70
29417;BME280;28421;51.030;4.006;2023-05-11T05:27:37;101527.34;;;12.24;92.43
29417;BME280;28421;51.030;4.006;2023-05-11T05:30:06;101527.84;;;12.28;92.45
29417;BME280;28421;51.030;4.006;2023-05-11T05:32:32;101539.81;;;12.33;92.07
29417;BME280;28421;51.030;4.006;2023-05-11T05:34:57;101516.38;;;12.26;92.05
29417;BME280;28421;51.030;4.006;2023-05-11T05:37:23;101520.69;;;11.94;93.74
29417;BME280;28421;51.030;4.006;2023-05-11T05:39:49;101522.06;;;12.14;93.70
29417;BME280;28421;51.030;4.006;2023-05-11T05:42:14;101532.25;;;12.45;93.25
29417;BME280;28421;51.030;4.006;2023-05-11T05:44:40;101536.59;;;12.38;92.30
29417;BME280;28421;51.030;4.006;2023-05-11T05:47:05;101539.31;;;12.54;92.20
29417;BME280;28421;51.030;4.006;2023-05-11T05:49:33;101540.50;;;12.68;91.22
29417;BME280;28421;51.030;4.006;2023-05-11T05:51:58;101529.69;;;12.76;90.60
29417;BME280;28421;51.030;4.006;2023-05-11T05:54:24;101544.72;;;12.79;89.97
29417;BME280;28421;51.030;4.006;2023-05-11T05:56:49;101531.03;;;12.72;90.23
29417;BME280;28421;51.030;4.006;2023-05-11T05:59:16;101550.94;;;13.04;89.94
29417;BME280;28421;51.030;4.006;2023-05-11T06:01:43;101544.84;;;12.85;89.10
29417;BME280;28421;51.030;4.006;2023-05-11T06:04:13;101551.13;;;13.02;89.13
29417;BME280;28421;51.030;4.006;2023-05-11T06:06:39;101554.81;;;13.01;89.77
29417;BME280;28421;51.030;4.006;2023-05-11T06:09:05;101565.28;;;12.96;89.65
29417;BME280;28421;51.030;4.006;2023-05-11T06:11:31;101562.56;;;12.88;90.02
29417;BME280;28421;51.030;4.006;2023-05-11T06:13:57;101564.25;;;13.05;89.17
29417;BME280;28421;51.030;4.006;2023-05-11T06:16:23;101548.75;;;12.91;88.11
29417;BME280;28421;51.030;4.006;2023-05-11T06:18:52;101559.56;;;12.91;88.41
29417;BME280;28421;51.030;4.006;2023-05-11T06:21:19;101551.56;;;13.14;88.45
29417;BME280;28421;51.030;4.006;2023-05-11T06:23:44;101544.53;;;12.80;88.95
29417;BME280;28421;51.030;4.006;2023-05-11T06:26:10;101547.41;;;12.95;87.96
29417;BME280;28421;51.030;4.006;2023-05-11T06:28:37;101550.59;;;13.15;88.30
29417;BME280;28421;51.030;4.006;2023-05-11T06:31:06;101554.47;;;13.12;88.70
29417;BME280;28421;51.030;4.006;2023-05-11T06:33:34;101569.31;;;12.92;88.71
29417;BME280;28421;51.030;4.006;2023-05-11T06:36:05;101563.94;;;12.92;89.29
29417;BME280;28421;51.030;4.006;2023-05-11T06:38:33;101571.84;;;12.93;88.69
29417;BME280;28421;51.030;4.006;2023-05-11T06:40:58;101581.47;;;12.88;89.16
29417;BME280;28421;51.030;4.006;2023-05-11T06:43:24;101551.28;;;12.68;90.79
29417;BME280;28421;51.030;4.006;2023-05-11T06:45:51;101546.69;;;13.01;90.02
29417;BME280;28421;51.030;4.006;2023-05-11T06:48:19;101555.59;;;13.42;89.23
29417;BME280;28421;51.030;4.006;2023-05-11T06:50:48;101545.56;;;13.59;88.09
29417;BME280;28421;51.030;4.006;2023-05-11T06:53:13;101577.75;;;12.81;88.05
29417;BME280;28421;51.030;4.006;2023-05-11T06:55:41;101582.13;;;13.14;88.86
29417;BME280;28421;51.030;4.006;2023-05-11T06:58:07;101574.50;;;13.42;87.24
29417;BME280;28421;51.030;4.006;2023-05-11T07:00:33;101552.03;;;13.50;85.94
29417;BME280;28421;51.030;4.006;2023-05-11T07:02:58;101565.94;;;13.78;85.34
29417;BME280;28421;51.030;4.006;2023-05-11T07:05:24;101564.84;;;13.96;85.35
29417;BME280;28421;51.030;4.006;2023-05-11T07:07:49;101574.19;;;14.16;84.19
29417;BME280;28421;51.030;4.006;2023-05-11T07:10:15;101578.66;;;14.32;84.01
29417;BME280;28421;51.030;4.006;2023-05-11T07:12:40;101578.66;;;14.32;82.73
29417;BME280;28421;51.030;4.006;2023-05-11T07:15:06;101576.97;;;14.62;82.36
29417;BME280;28421;51.030;4.006;2023-05-11T07:17:32;101580.63;;;14.69;81.76
29417;BME280;28421;51.030;4.006;2023-05-11T07:19:57;101569.81;;;14.69;80.65
29417;BME280;28421;51.030;4.006;2023-05-11T07:22:23;101569.88;;;14.61;79.52
29417;BME280;28421;51.030;4.006;2023-05-11T07:24:48;101569.41;;;14.95;79.63
29417;BME280;28421;51.030;4.006;2023-05-11T07:27:14;101565.63;;;15.19;79.45
29417;BME280;28421;51.030;4.006;2023-05-11T07:29:39;101569.28;;;15.41;79.39
29417;BME280;28421;51.030;4.006;2023-05-11T07:32:05;101563.88;;;15.56;78.07
29417;BME280;28421;51.030;4.006;2023-05-11T07:34:30;101570.50;;;15.83;78.69
29417;BME280;28421;51.030;4.006;2023-05-11T07:36:55;101581.41;;;16.19;76.38
29417;BME280;28421;51.030;4.006;2023-05-11T07:39:21;101583.56;;;16.45;75.58
29417;BME280;28421;51.030;4.006;2023-05-11T07:41:46;101586.00;;;16.40;74.86
29417;BME280;28421;51.030;4.006;2023-05-11T07:44:12;101573.50;;;16.24;74.50
29417;BME280;28421;51.030;4.006;2023-05-11T07:46:37;101569.38;;;15.92;74.41
29417;BME280;28421;51.030;4.006;2023-05-11T07:49:03;101577.25;;;15.87;75.29
29417;BME280;28421;51.030;4.006;2023-05-11T07:51:28;101585.16;;;15.59;75.48
29417;BME280;28421;51.030;4.006;2023-05-11T07:53:54;101584.72;;;16.36;75.17
29417;BME280;28421;51.030;4.006;2023-05-11T07:56:19;101585.06;;;16.48;75.62
29417;BME280;28421;51.030;4.006;2023-05-11T07:58:45;101580.59;;;16.40;71.45
29417;BME280;28421;51.030;4.006;2023-05-11T08:01:10;101586.84;;;16.62;71.89
29417;BME280;28421;51.030;4.006;2023-05-11T08:03:36;101568.88;;;16.61;72.15
29417;BME280;28421;51.030;4.006;2023-05-11T08:06:02;101574.19;;;16.90;70.83
29417;BME280;28421;51.030;4.006;2023-05-11T08:08:27;101579.41;;;17.13;71.18
29417;BME280;28421;51.030;4.006;2023-05-11T08:10:55;101588.81;;;17.46;70.46
29417;BME280;28421;51.030;4.006;2023-05-11T08:13:20;101578.03;;;16.96;67.19
29417;BME280;28421;51.030;4.006;2023-05-11T08:15:46;101585.75;;;17.55;68.10
29417;BME280;28421;51.030;4.006;2023-05-11T08:18:11;101567.34;;;17.23;66.37
29417;BME280;28421;51.030;4.006;2023-05-11T08:20:37;101584.38;;;16.67;70.11
29417;BME280;28421;51.030;4.006;2023-05-11T08:23:03;101572.47;;;17.11;69.70
29417;BME280;28421;51.030;4.006;2023-05-11T08:25:29;101586.19;;;17.59;68.02
29417;BME280;28421;51.030;4.006;2023-05-11T08:27:54;101581.50;;;16.90;67.88
29417;BME280;28421;51.030;4.006;2023-05-11T08:30:20;101584.03;;;17.20;69.40
29417;BME280;28421;51.030;4.006;2023-05-11T08:32:46;101575.94;;;17.61;68.42
29417;BME280;28421;51.030;4.006;2023-05-11T08:35:11;101570.56;;;16.83;68.13
29417;BME280;28421;51.030;4.006;2023-05-11T08:37:37;101572.91;;;17.43;69.08
29417;BME280;28421;51.030;4.006;2023-05-11T08:40:03;101563.28;;;16.84;67.71
29417;BME280;28421;51.030;4.006;2023-05-11T08:42:32;101594.50;;;16.95;67.87
29417;BME280;28421;51.030;4.006;2023-05-11T08:44:58;101584.25;;;17.53;67.77
29417;BME280;28421;51.030;4.006;2023-05-11T08:47:26;101585.53;;;17.50;67.34
29417;BME280;28421;51.030;4.006;2023-05-11T08:49:51;101554.41;;;17.66;66.54
29417;BME280;28421;51.030;4.006;2023-05-11T08:52:18;101558.72;;;17.47;66.01
29417;BME280;28421;51.030;4.006;2023-05-11T08:54:45;101579.91;;;16.38;68.59
29417;BME280;28421;51.030;4.006;2023-05-11T08:57:12;101580.22;;;16.07;69.50
29417;BME280;28421;51.030;4.006;2023-05-11T08:59:40;101593.91;;;16.56;68.89
29417;BME280;28421;51.030;4.006;2023-05-11T09:02:09;101580.06;;;15.79;71.24
29417;BME280;28421;51.030;4.006;2023-05-11T09:04:38;101581.25;;;15.32;72.35
29417;BME280;28421;51.030;4.006;2023-05-11T09:07:05;101603.69;;;16.00;72.47
29417;BME280;28421;51.030;4.006;2023-05-11T09:09:31;101579.53;;;16.05;73.28
29417;BME280;28421;51.030;4.006;2023-05-11T09:11:56;101536.50;;;15.36;72.01
29417;BME280;28421;51.030;4.006;2023-05-11T09:14:22;101587.31;;;16.08;70.00
29417;BME280;28421;51.030;4.006;2023-05-11T09:16:48;101570.75;;;16.39;70.29
29417;BME280;28421;51.030;4.006;2023-05-11T09:19:15;101596.06;;;15.88;70.36
29417;BME280;28421;51.030;4.006;2023-05-11T09:21:41;101568.88;;;16.18;70.15
29417;BME280;28421;51.030;4.006;2023-05-11T09:24:10;101586.81;;;16.55;69.70
29417;BME280;28421;51.030;4.006;2023-05-11T09:26:37;101618.66;;;16.47;69.12
29417;BME280;28421;51.030;4.006;2023-05-11T09:29:02;101616.09;;;16.24;71.31
29417;BME280;28421;51.030;4.006;2023-05-11T09:36:43;101615.50;;;17.07;69.08
29417;BME280;28421;51.030;4.006;2023-05-11T09:39:09;101612.41;;;16.68;67.86
29417;BME280;28421;51.030;4.006;2023-05-11T09:41:35;101615.56;;;16.71;69.10
29417;BME280;28421;51.030;4.006;2023-05-11T09:44:11;101610.00;;;17.22;70.14
29417;BME280;28421;51.030;4.006;2023-05-11T09:46:39;101606.28;;;16.08;70.58
29417;BME280;28421;51.030;4.006;2023-05-11T09:49:06;101578.50;;;16.42;69.97
29417;BME280;28421;51.030;4.006;2023-05-11T09:51:34;101577.28;;;16.66;68.29
29417;BME280;28421;51.030;4.006;2023-05-11T09:54:14;101607.25;;;16.73;68.64
29417;BME280;28421;51.030;4.006;2023-05-11T09:56:50;101596.56;;;17.49;67.67
29417;BME280;28421;51.030;4.006;2023-05-11T09:59:38;101613.53;;;16.58;66.40
29417;BME280;28421;51.030;4.006;2023-05-11T10:02:21;101615.84;;;16.55;68.01
29417;BME280;28421;51.030;4.006;2023-05-11T10:04:50;101608.91;;;16.52;67.62
29417;BME280;28421;51.030;4.006;2023-05-11T10:09:56;101604.16;;;16.76;68.82
29417;BME280;28421;51.030;4.006;2023-05-11T10:12:23;101597.59;;;16.49;68.18
29417;BME280;28421;51.030;4.006;2023-05-11T10:14:51;101606.81;;;16.33;68.54
29417;BME280;28421;51.030;4.006;2023-05-11T10:17:18;101595.81;;;16.77;70.77
29417;BME280;28421;51.030;4.006;2023-05-11T10:19:45;101590.19;;;16.79;67.40
29417;BME280;28421;51.030;4.006;2023-05-11T10:22:10;101596.59;;;17.21;67.93
29417;BME280;28421;51.030;4.006;2023-05-11T10:24:36;101592.13;;;17.41;68.45
29417;BME280;28421;51.030;4.006;2023-05-11T10:27:02;101595.19;;;16.60;67.24
29417;BME280;28421;51.030;4.006;2023-05-11T10:29:29;101600.47;;;17.05;67.08
29417;BME280;28421;51.030;4.006;2023-05-11T10:31:57;101594.25;;;17.46;65.76
29417;BME280;28421;51.030;4.006;2023-05-11T10:34:23;101597.50;;;18.04;66.28
29417;BME280;28421;51.030;4.006;2023-05-11T10:36:51;101596.59;;;18.38;64.82
29417;BME280;28421;51.030;4.006;2023-05-11T10:39:16;101596.31;;;18.87;63.56
29417;BME280;28421;51.030;4.006;2023-05-11T10:41:58;101595.81;;;18.51;62.06
29417;BME280;28421;51.030;4.006;2023-05-11T10:50:32;101594.16;;;18.70;59.89
29417;BME280;28421;51.030;4.006;2023-05-11T10:58:13;101578.63;;;17.89;64.35
29417;BME280;28421;51.030;4.006;2023-05-11T11:03:55;101590.75;;;17.86;62.12
29417;BME280;28421;51.030;4.006;2023-05-11T11:06:21;101577.28;;;18.20;62.32
29417;BME280;28421;51.030;4.006;2023-05-11T11:08:58;101586.28;;;18.13;60.44
29417;BME280;28421;51.030;4.006;2023-05-11T11:13:58;101574.50;;;19.01;61.02
29417;BME280;28421;51.030;4.006;2023-05-11T11:16:27;101572.22;;;18.91;60.46
29417;BME280;28421;51.030;4.006;2023-05-11T11:22:00;101558.16;;;19.01;59.07
29417;BME280;28421;51.030;4.006;2023-05-11T11:27:00;101577.63;;;18.03;60.93
29417;BME280;28421;51.030;4.006;2023-05-11T11:29:27;101568.66;;;18.09;61.85
29417;BME280;28421;51.030;4.006;2023-05-11T11:31:52;101570.25;;;18.58;61.31
29417;BME280;28421;51.030;4.006;2023-05-11T11:42:07;101555.38;;;18.54;61.72
29417;BME280;28421;51.030;4.006;2023-05-11T11:44:34;101556.78;;;18.37;60.77
29417;BME280;28421;51.030;4.006;2023-05-11T11:47:17;101555.13;;;17.75;60.79
29417;BME280;28421;51.030;4.006;2023-05-11T11:49:49;101565.03;;;17.89;63.04
29417;BME280;28421;51.030;4.006;2023-05-11T11:54:54;101563.53;;;18.48;62.15
29417;BME280;28421;51.030;4.006;2023-05-11T12:00:07;101561.66;;;18.42;59.96
29417;BME280;28421;51.030;4.006;2023-05-11T12:02:39;101552.06;;;18.85;62.38
29417;BME280;28421;51.030;4.006;2023-05-11T12:05:16;101550.56;;;18.63;57.42
29417;BME280;28421;51.030;4.006;2023-05-11T12:07:52;101556.69;;;18.72;59.34
29417;BME280;28421;51.030;4.006;2023-05-11T12:10:19;101541.47;;;18.23;58.20
29417;BME280;28421;51.030;4.006;2023-05-11T12:12:50;101556.56;;;18.25;60.53
29417;BME280;28421;51.030;4.006;2023-05-11T12:15:29;101570.28;;;17.97;60.91
29417;BME280;28421;51.030;4.006;2023-05-11T12:17:56;101557.31;;;17.58;63.21
29417;BME280;28421;51.030;4.006;2023-05-11T12:20:22;101555.50;;;17.72;65.28
29417;BME280;28421;51.030;4.006;2023-05-11T12:22:48;101568.00;;;17.59;65.61
29417;BME280;28421;51.030;4.006;2023-05-11T12:25:15;101557.97;;;17.60;64.99
29417;BME280;28421;51.030;4.006;2023-05-11T12:27:55;101555.41;;;16.96;66.39
29417;BME280;28421;51.030;4.006;2023-05-11T12:30:28;101552.69;;;16.89;68.69
29417;BME280;28421;51.030;4.006;2023-05-11T12:32:54;101541.66;;;17.25;66.85
29417;BME280;28421;51.030;4.006;2023-05-11T12:35:24;101562.97;;;17.22;66.59
29417;BME280;28421;51.030;4.006;2023-05-11T12:37:51;101562.28;;;17.82;64.84
29417;BME280;28421;51.030;4.006;2023-05-11T12:40:17;101565.59;;;17.78;62.84
29417;BME280;28421;51.030;4.006;2023-05-11T12:42:53;101533.34;;;17.75;61.13
29417;BME280;28421;51.030;4.006;2023-05-11T12:45:20;101553.31;;;17.95;62.37
29417;BME280;28421;51.030;4.006;2023-05-11T12:47:48;101543.19;;;18.37;60.01
29417;BME280;28421;51.030;4.006;2023-05-11T12:50:15;101532.09;;;18.25;60.65
29417;BME280;28421;51.030;4.006;2023-05-11T12:52:41;101517.00;;;18.29;60.31
29417;BME280;28421;51.030;4.006;2023-05-11T12:55:08;101555.34;;;18.34;60.16
29417;BME280;28421;51.030;4.006;2023-05-11T12:57:36;101530.81;;;18.41;60.38
29417;BME280;28421;51.030;4.006;2023-05-11T13:00:11;101499.84;;;18.49;59.81
29417;BME280;28421;51.030;4.006;2023-05-11T13:05:09;101506.38;;;18.87;61.58
29417;BME280;28421;51.030;4.006;2023-05-11T13:07:36;101519.91;;;18.28;58.59
29417;BME280;28421;51.030;4.006;2023-05-11T13:10:01;101517.31;;;17.93;59.58
29417;BME280;28421;51.030;4.006;2023-05-11T13:12:27;101526.28;;;17.87;60.08
29417;BME280;28421;51.030;4.006;2023-05-11T13:15:23;101553.97;;;18.04;60.83
29417;BME280;28421;51.030;4.006;2023-05-11T13:17:58;101567.97;;;17.87;61.17
29417;BME280;28421;51.030;4.006;2023-05-11T13:20:29;101535.06;;;17.76;61.07
29417;BME280;28421;51.030;4.006;2023-05-11T13:23:07;101537.41;;;17.51;62.04
29417;BME280;28421;51.030;4.006;2023-05-11T13:28:10;101554.50;;;17.45;63.77
29417;BME280;28421;51.030;4.006;2023-05-11T13:30:36;101552.91;;;17.50;63.31
29417;BME280;28421;51.030;4.006;2023-05-11T13:33:02;101563.72;;;16.45;64.41
29417;BME280;28421;51.030;4.006;2023-05-11T13:35:27;101516.78;;;16.72;65.18
29417;BME280;28421;51.030;4.006;2023-05-11T13:37:53;101516.22;;;16.77;64.05
29417;BME280;28421;51.030;4.006;2023-05-11T13:40:18;101546.13;;;16.62;63.93
29417;BME280;28421;51.030;4.006;2023-05-11T13:42:44;101547.88;;;16.91;63.88
29417;BME280;28421;51.030;4.006;2023-05-11T13:45:11;101537.47;;;16.52;64.04
29417;BME280;28421;51.030;4.006;2023-05-11T13:47:36;101533.94;;;16.51;64.75
29417;BME280;28421;51.030;4.006;2023-05-11T13:50:02;101549.88;;;16.82;64.66
29417;BME280;28421;51.030;4.006;2023-05-11T13:57:52;101561.22;;;16.86;64.01
29417;BME280;28421;51.030;4.006;2023-05-11T14:00:18;101555.78;;;16.64;64.26
29417;BME280;28421;51.030;4.006;2023-05-11T14:02:44;101567.09;;;16.89;64.93
29417;BME280;28421;51.030;4.006;2023-05-11T14:05:09;101510.97;;;16.54;64.41
29417;BME280;28421;51.030;4.006;2023-05-11T14:07:35;101545.91;;;17.06;64.46
29417;BME280;28421;51.030;4.006;2023-05-11T14:10:01;101551.94;;;17.30;63.38
29417;BME280;28421;51.030;4.006;2023-05-11T14:12:27;101536.22;;;17.25;63.81
29417;BME280;28421;51.030;4.006;2023-05-11T14:14:52;101556.69;;;17.97;63.12
29417;BME280;28421;51.030;4.006;2023-05-11T14:17:18;101561.78;;;18.20;61.46
29417;BME280;28421;51.030;4.006;2023-05-11T14:19:43;101546.69;;;18.11;60.65
29417;BME280;28421;51.030;4.006;2023-05-11T14:22:11;101544.31;;;17.95;60.66
29417;BME280;28421;51.030;4.006;2023-05-11T14:24:36;101528.34;;;18.46;60.37
29417;BME280;28421;51.030;4.006;2023-05-11T14:27:02;101518.66;;;18.17;60.32
29417;BME280;28421;51.030;4.006;2023-05-11T14:29:28;101527.34;;;18.87;59.42
29417;BME280;28421;51.030;4.006;2023-05-11T14:31:53;101501.56;;;18.70;58.33
29417;BME280;28421;51.030;4.006;2023-05-11T14:34:19;101514.75;;;18.73;58.17
29417;BME280;28421;51.030;4.006;2023-05-11T14:36:44;101501.72;;;19.15;58.88
29417;BME280;28421;51.030;4.006;2023-05-11T14:39:10;101538.97;;;19.41;56.75
29417;BME280;28421;51.030;4.006;2023-05-11T14:41:35;101515.16;;;18.70;56.57
29417;BME280;28421;51.030;4.006;2023-05-11T14:44:01;101533.19;;;18.91;53.82
29417;BME280;28421;51.030;4.006;2023-05-11T14:46:26;101547.66;;;19.18;54.72
29417;BME280;28421;51.030;4.006;2023-05-11T14:48:52;101492.97;;;18.73;55.78
29417;BME280;28421;51.030;4.006;2023-05-11T14:51:17;101542.19;;;19.18;52.64
29417;BME280;28421;51.030;4.006;2023-05-11T14:53:43;101517.13;;;19.67;54.57
29417;BME280;28421;51.030;4.006;2023-05-11T14:56:09;101536.41;;;19.79;54.56
29417;BME280;28421;51.030;4.006;2023-05-11T14:58:34;101526.69;;;19.05;54.59
29417;BME280;28421;51.030;4.006;2023-05-11T15:01:00;101531.44;;;19.49;56.46
29417;BME280;28421;51.030;4.006;2023-05-11T15:03:26;101496.78;;;19.56;54.58
29417;BME280;28421;51.030;4.006;2023-05-11T15:05:51;101533.59;;;19.21;55.31
29417;BME280;28421;51.030;4.006;2023-05-11T15:08:17;101528.38;;;18.86;56.18
29417;BME280;28421;51.030;4.006;2023-05-11T15:10:42;101526.25;;;18.55;58.18
29417;BME280;28421;51.030;4.006;2023-05-11T15:13:08;101529.84;;;18.82;58.40
29417;BME280;28421;51.030;4.006;2023-05-11T15:15:38;101528.28;;;18.13;58.11
29417;BME280;28421;51.030;4.006;2023-05-11T15:18:04;101493.66;;;17.87;60.94
29417;BME280;28421;51.030;4.006;2023-05-11T15:20:29;101522.41;;;18.16;58.44
29417;BME280;28421;51.030;4.006;2023-05-11T15:22:55;101517.03;;;17.75;58.68
29417;BME280;28421;51.030;4.006;2023-05-11T15:25:20;101523.78;;;17.09;60.17
29417;BME280;28421;51.030;4.006;2023-05-11T15:27:46;101530.09;;;16.67;61.29
29417;BME280;28421;51.030;4.006;2023-05-11T15:30:13;101560.63;;;17.19;61.90
29417;BME280;28421;51.030;4.006;2023-05-11T15:32:39;101524.38;;;17.05;61.98
29417;BME280;28421;51.030;4.006;2023-05-11T15:35:04;101514.53;;;17.04;63.52
29417;BME280;28421;51.030;4.006;2023-05-11T15:37:31;101522.34;;;17.13;64.84
29417;BME280;28421;51.030;4.006;2023-05-11T15:39:56;101498.44;;;17.37;63.96
29417;BME280;28421;51.030;4.006;2023-05-11T15:42:22;101499.91;;;17.39;65.32
29417;BME280;28421;51.030;4.006;2023-05-11T15:44:47;101526.47;;;17.79;63.98
29417;BME280;28421;51.030;4.006;2023-05-11T15:47:13;101529.59;;;17.41;65.87
29417;BME280;28421;51.030;4.006;2023-05-11T15:49:38;101502.81;;;17.03;65.98
29417;BME280;28421;51.030;4.006;2023-05-11T15:52:04;101524.88;;;17.56;66.24
29417;BME280;28421;51.030;4.006;2023-05-11T15:54:29;101552.13;;;17.63;68.02
29417;BME280;28421;51.030;4.006;2023-05-11T15:56:55;101513.41;;;17.61;66.59
29417;BME280;28421;51.030;4.006;2023-05-11T15:59:21;101530.66;;;17.40;64.81
29417;BME280;28421;51.030;4.006;2023-05-11T16:01:46;101499.81;;;16.92;66.25
29417;BME280;28421;51.030;4.006;2023-05-11T16:04:12;101522.53;;;17.12;65.50
29417;BME280;28421;51.030;4.006;2023-05-11T16:06:38;101522.25;;;17.35;64.68
29417;BME280;28421;51.030;4.006;2023-05-11T16:09:04;101554.22;;;17.33;64.12
29417;BME280;28421;51.030;4.006;2023-05-11T16:11:29;101543.97;;;17.00;66.28
29417;BME280;28421;51.030;4.006;2023-05-11T16:13:55;101544.31;;;17.19;66.33
29417;BME280;28421;51.030;4.006;2023-05-11T16:16:21;101509.28;;;16.74;66.60
29417;BME280;28421;51.030;4.006;2023-05-11T16:18:46;101548.13;;;16.53;68.49
29417;BME280;28421;51.030;4.006;2023-05-11T16:21:12;101570.72;;;16.75;68.86
29417;BME280;28421;51.030;4.006;2023-05-11T16:23:39;101545.75;;;16.65;69.31
29417;BME280;28421;51.030;4.006;2023-05-11T16:26:04;101538.56;;;16.79;69.18
29417;BME280;28421;51.030;4.006;2023-05-11T16:28:30;101565.34;;;16.60;69.21
29417;BME280;28421;51.030;4.006;2023-05-11T16:30:57;101541.78;;;16.25;70.96
29417;BME280;28421;51.030;4.006;2023-05-11T16:33:23;101532.47;;;16.12;71.73
29417;BME280;28421;51.030;4.006;2023-05-11T16:35:48;101564.88;;;16.57;70.92
29417;BME280;28421;51.030;4.006;2023-05-11T16:38:17;101580.09;;;16.73;69.95
29417;BME280;28421;51.030;4.006;2023-05-11T16:40:42;101574.50;;;16.38;70.62
29417;BME280;28421;51.030;4.006;2023-05-11T16:43:08;101564.63;;;16.30;71.46
29417;BME280;28421;51.030;4.006;2023-05-11T16:45:34;101577.34;;;16.30;70.96
29417;BME280;28421;51.030;4.006;2023-05-11T16:47:59;101552.59;;;16.18;71.09
29417;BME280;28421;51.030;4.006;2023-05-11T16:50:25;101585.50;;;16.51;71.46
29417;BME280;28421;51.030;4.006;2023-05-11T16:52:50;101563.25;;;16.62;71.02
29417;BME280;28421;51.030;4.006;2023-05-11T16:55:16;101566.03;;;16.26;71.75
29417;BME280;28421;51.030;4.006;2023-05-11T16:57:41;101566.13;;;15.97;71.56
29417;BME280;28421;51.030;4.006;2023-05-11T17:00:09;101535.72;;;15.86;72.81
29417;BME280;28421;51.030;4.006;2023-05-11T17:02:34;101543.97;;;15.93;72.61